Time;durP1;ratioP1;P1;durP2;ratioP2;P2;SDS_P1;SDS_P2;PMS_P1;PMS_P2;Temp;Humidity;BMP_temperature;BMP_pressure;BME280_temperature;BME280_humidity;BME280_pressure;Samples;Min_cycle;Max_cycle;Signal;HPM_P1;HPM_P2
2023/12/27 00:00:35;;;;;;;10.45;6.65;;;;;;;3.99;100.00;102082.53;5043416;28;20224;-74
2023/12/27 00:03:00;;;;;;;12.00;7.43;;;;;;;3.97;100.00;102079.06;5036401;28;20033;-74
2023/12/27 00:05:25;;;;;;;11.82;7.35;;;;;;;3.97;100.00;102060.94;5035099;28;20068;-74
2023/12/27 00:07:51;;;;;;;12.70;7.53;;;;;;;3.96;100.00;102059.19;5033652;28;20073;-74
2023/12/27 00:10:16;;;;;;;12.98;7.25;;;;;;;3.97;100.00;102063.50;5032380;28;20040;-74
2023/12/27 00:12:41;;;;;;;13.70;7.43;;;;;;;3.97;100.00;102069.56;5036116;28;20037;-74
2023/12/27 00:15:07;;;;;;;11.43;7.30;;;;;;;3.98;100.00;102057.44;5032784;28;20037;-74
2023/12/27 00:17:32;;;;;;;13.80;7.55;;;;;;;3.95;100.00;102073.00;5032752;28;20333;-74
2023/12/27 00:19:58;;;;;;;12.05;7.18;;;;;;;3.96;100.00;102064.34;5021017;28;20038;-74
2023/12/27 00:22:23;;;;;;;9.68;7.28;;;;;;;3.96;100.00;102057.44;5035384;28;20388;-74
2023/12/27 00:24:49;;;;;;;14.10;7.75;;;;;;;3.95;100.00;102053.13;5023163;28;20275;-74
2023/12/27 00:27:14;;;;;;;12.57;7.50;;;;;;;3.95;100.00;102055.72;5027382;28;20053;-74
2023/12/27 00:29:39;;;;;;;10.50;7.50;;;;;;;3.94;100.00;102061.75;5017686;28;20072;-74
2023/12/27 00:32:09;;;;;;;10.25;7.15;;;;;;;3.97;100.00;102059.19;5027227;28;20040;-74
2023/12/27 00:34:38;;;;;;;14.35;7.00;;;;;;;3.97;100.00;102066.09;5036847;28;20048;-74
2023/12/27 00:37:04;;;;;;;14.90;7.50;;;;;;;3.95;100.00;102063.50;5028806;28;20274;-73
2023/12/27 00:39:30;;;;;;;9.48;7.25;;;;;;;3.91;100.00;102059.16;5030295;28;20395;-73
2023/12/27 00:41:55;;;;;;;12.10;7.15;;;;;;;3.91;100.00;102055.69;5036400;28;20038;-74
2023/12/27 00:44:20;;;;;;;17.85;7.35;;;;;;;3.90;100.00;102064.34;5017179;28;20065;-74
2023/12/27 00:46:46;;;;;;;9.95;7.15;;;;;;;3.90;100.00;102059.16;5015456;28;20025;-74
2023/12/27 00:49:11;;;;;;;13.57;7.43;;;;;;;3.90;100.00;102070.38;5014741;28;20029;-74
2023/12/27 00:51:37;;;;;;;17.50;8.52;;;;;;;3.92;100.00;102050.50;5017111;28;20033;-74
2023/12/27 00:54:02;;;;;;;13.68;7.22;;;;;;;3.96;100.00;102048.81;5016563;28;20030;-74
2023/12/27 00:56:28;;;;;;;10.25;7.30;;;;;;;4.00;100.00;102043.66;5035648;28;20041;-74
2023/12/27 00:58:53;;;;;;;12.52;7.80;;;;;;;4.04;100.00;102045.41;5036253;28;20041;-74
2023/12/27 01:01:18;;;;;;;12.00;7.10;;;;;;;4.05;100.00;102035.91;5036995;28;20431;-74
2023/12/27 01:03:44;;;;;;;12.60;6.82;;;;;;;4.06;100.00;102027.28;5036167;28;20102;-74
2023/12/27 01:06:10;;;;;;;11.20;7.07;;;;;;;4.08;100.00;102029.88;5035955;28;20037;-74
2023/12/27 01:08:36;;;;;;;9.85;6.57;;;;;;;4.08;100.00;102029.88;5035754;28;20060;-74
2023/12/27 01:11:01;;;;;;;11.60;6.55;;;;;;;4.10;100.00;102030.75;5035635;28;20120;-74
2023/12/27 01:13:28;;;;;;;11.15;7.32;;;;;;;4.11;100.00;102035.94;5036106;28;20033;-74
2023/12/27 01:15:53;;;;;;;9.93;6.53;;;;;;;4.13;100.00;102038.53;5035483;28;20044;-74
2023/12/27 01:18:19;;;;;;;10.00;6.60;;;;;;;4.12;100.00;102039.41;5036238;28;20041;-74
2023/12/27 01:20:44;;;;;;;11.00;7.20;;;;;;;4.09;100.00;102045.41;5028816;28;20042;-74
2023/12/27 01:23:09;;;;;;;10.70;6.75;;;;;;;4.14;100.00;102045.47;5015341;28;20048;-74
2023/12/27 01:25:35;;;;;;;9.70;7.03;;;;;;;4.15;100.00;102042.88;5025664;28;20177;-74
2023/12/27 01:28:00;;;;;;;10.45;7.40;;;;;;;4.15;100.00;102044.63;5030251;28;20099;-74
2023/12/27 01:30:26;;;;;;;13.40;7.25;;;;;;;4.14;100.00;102050.63;5027185;28;20048;-74
2023/12/27 01:32:51;;;;;;;10.55;6.95;;;;;;;4.14;100.00;102043.72;5035545;28;20088;-74
2023/12/27 01:35:16;;;;;;;13.05;7.25;;;;;;;4.18;100.00;102044.59;5016943;28;20039;-74
2023/12/27 01:37:43;;;;;;;10.27;7.40;;;;;;;4.22;100.00;102043.75;5018327;28;20084;-74
2023/12/27 01:40:08;;;;;;;10.48;6.82;;;;;;;4.27;100.00;102043.78;5023682;28;20337;-74
2023/12/27 01:42:34;;;;;;;15.30;7.40;;;;;;;4.33;100.00;102046.41;5017407;28;20040;-74
2023/12/27 01:45:00;;;;;;;10.77;6.57;;;;;;;4.38;100.00;102042.09;5024705;28;20120;-74
2023/12/27 01:47:25;;;;;;;13.30;7.80;;;;;;;4.40;100.00;102028.31;5015872;28;20328;-74
2023/12/27 01:49:52;;;;;;;11.73;7.25;;;;;;;4.45;100.00;102025.72;5029064;28;20041;-74
2023/12/27 01:52:17;;;;;;;11.95;8.25;;;;;;;4.45;100.00;102022.25;5035392;28;20373;-74
2023/12/27 01:54:43;;;;;;;16.00;8.00;;;;;;;4.43;100.00;102020.50;5035523;28;20037;-74
2023/12/27 01:57:08;;;;;;;16.58;8.50;;;;;;;4.44;100.00;102018.81;5034785;28;20116;-74
2023/12/27 01:59:34;;;;;;;12.52;7.35;;;;;;;4.47;100.00;102023.13;5034241;28;20087;-74
2023/12/27 02:02:00;;;;;;;14.02;7.65;;;;;;;4.50;100.00;102023.16;5021235;28;20214;-74
2023/12/27 02:04:25;;;;;;;9.48;7.13;;;;;;;4.51;100.00;102017.97;5015370;28;20030;-74
2023/12/27 02:06:51;;;;;;;15.32;8.23;;;;;;;4.51;100.00;102017.06;5014902;28;20081;-74
2023/12/27 02:09:18;;;;;;;12.57;7.28;;;;;;;4.51;100.00;102030.03;5015339;28;20250;-74
2023/12/27 02:11:44;;;;;;;13.40;7.50;;;;;;;4.49;100.00;102027.44;5015241;28;20042;-74
2023/12/27 02:14:09;;;;;;;12.98;7.53;;;;;;;4.47;100.00;102028.31;5014035;28;20091;-74
2023/12/27 02:16:35;;;;;;;15.48;7.30;;;;;;;4.46;100.00;102022.25;5015548;28;20056;-74
2023/12/27 02:19:04;;;;;;;11.50;7.53;;;;;;;4.43;100.00;102020.50;5014557;28;20034;-74
2023/12/27 02:21:30;;;;;;;21.83;8.27;;;;;;;4.43;100.00;102023.09;5015316;28;20478;-74
2023/12/27 02:23:59;;;;;;;17.92;7.43;;;;;;;4.43;100.00;102022.25;5014364;28;20049;-74
2023/12/27 02:26:25;;;;;;;10.35;7.25;;;;;;;4.44;100.00;102016.22;5015479;28;20108;-74
2023/12/27 02:28:50;;;;;;;13.30;7.57;;;;;;;4.46;100.00;102021.38;5014424;28;20139;-74
2023/12/27 02:31:16;;;;;;;14.25;7.40;;;;;;;4.48;100.00;102011.91;5015118;28;20041;-74
2023/12/27 02:33:44;;;;;;;9.73;6.78;;;;;;;4.51;100.00;102017.06;5014836;28;20408;-74
2023/12/27 02:36:10;;;;;;;13.27;7.47;;;;;;;4.53;100.00;102012.75;5014338;28;20041;-74
2023/12/27 02:38:36;;;;;;;14.95;7.50;;;;;;;4.55;100.00;102005.88;5015864;28;20049;-74
2023/12/27 02:41:02;;;;;;;12.85;8.30;;;;;;;4.54;100.00;102004.13;5027871;28;20041;-74
2023/12/27 02:43:27;;;;;;;18.45;7.82;;;;;;;4.54;100.00;101997.19;5033233;28;20045;-74
2023/12/27 02:45:53;;;;;;;16.08;8.18;;;;;;;4.54;100.00;101989.41;5032768;28;20070;-74
2023/12/27 02:48:18;;;;;;;10.68;7.90;;;;;;;4.58;100.00;101992.88;5033935;28;20183;-74
2023/12/27 02:50:44;;;;;;;9.80;7.47;;;;;;;4.56;100.00;101979.91;5034175;28;20125;-74
2023/12/27 02:53:10;;;;;;;13.05;7.35;;;;;;;4.63;100.00;101978.19;5029054;28;20059;-74
2023/12/27 02:55:36;;;;;;;13.63;7.82;;;;;;;4.61;100.00;101977.34;5014717;28;20345;-74
2023/12/27 02:58:01;;;;;;;10.13;7.60;;;;;;;4.63;100.00;101967.81;5015863;28;20041;-74
2023/12/27 03:00:27;;;;;;;16.02;7.80;;;;;;;4.63;100.00;101957.44;5034364;28;20092;-74
2023/12/27 03:02:52;;;;;;;10.40;7.28;;;;;;;4.63;100.00;101957.44;5032299;28;20109;-74
2023/12/27 03:05:17;;;;;;;12.77;7.80;;;;;;;4.65;100.00;101953.13;5014827;28;20379;-74
2023/12/27 03:07:43;;;;;;;11.40;6.95;;;;;;;4.67;100.00;101941.00;5014053;28;20373;-74
2023/12/27 03:10:08;;;;;;;13.10;7.78;;;;;;;4.68;100.00;101934.97;5014110;28;20148;-74
2023/12/27 03:12:34;;;;;;;12.80;7.93;;;;;;;4.68;100.00;101936.69;5033134;28;20067;-74
2023/12/27 03:14:59;;;;;;;12.07;7.80;;;;;;;4.68;100.00;101934.09;5017605;28;20038;-74
2023/12/27 03:17:25;;;;;;;16.35;8.48;;;;;;;4.70;100.00;101928.03;5014520;28;20060;-74
2023/12/27 03:19:50;;;;;;;17.77;8.20;;;;;;;4.71;100.00;101928.91;5024874;28;20037;-74
2023/12/27 03:22:15;;;;;;;18.42;9.65;;;;;;;4.76;100.00;101920.25;5033564;28;20033;-74
2023/12/27 03:24:41;;;;;;;15.30;8.70;;;;;;;4.90;100.00;101912.47;5026574;28;20029;-74
2023/12/27 03:27:06;;;;;;;16.00;9.25;;;;;;;4.90;100.00;101916.81;5033088;28;20033;-74
2023/12/27 03:29:31;;;;;;;20.48;9.73;;;;;;;4.87;100.00;101909.88;5032735;28;20330;-74
2023/12/27 03:31:57;;;;;;;19.30;9.45;;;;;;;4.84;100.00;101907.31;5019013;28;20025;-74
2023/12/27 03:34:22;;;;;;;17.00;9.10;;;;;;;4.84;100.00;101898.63;5030578;28;20116;-74
2023/12/27 03:36:47;;;;;;;13.93;8.65;;;;;;;4.84;100.00;101904.72;5031393;28;20040;-74
2023/12/27 03:39:13;;;;;;;12.07;9.10;;;;;;;4.87;100.00;101896.03;5032336;28;20045;-74
2023/12/27 03:41:38;;;;;;;12.77;8.90;;;;;;;4.88;100.00;101896.03;5034092;28;20148;-74
2023/12/27 03:44:04;;;;;;;19.95;9.20;;;;;;;4.88;100.00;101883.06;5031945;28;20038;-77
2023/12/27 03:46:29;;;;;;;17.23;9.95;;;;;;;4.86;100.00;101894.28;5030950;28;20040;-77
2023/12/27 03:48:54;;;;;;;13.35;8.90;;;;;;;4.85;100.00;101879.59;5013438;28;20042;-77
2023/12/27 03:51:23;;;;;;;13.82;8.95;;;;;;;4.84;100.00;101875.25;5013981;28;20038;-77
2023/12/27 03:53:48;;;;;;;15.90;8.73;;;;;;;4.85;100.00;101874.41;5013613;28;20069;-77
2023/12/27 03:56:14;;;;;;;13.77;9.25;;;;;;;4.83;100.00;101858.84;5024822;28;20259;-77
2023/12/27 03:58:42;;;;;;;16.70;8.95;;;;;;;4.83;100.00;101855.38;5015970;28;20065;-77
2023/12/27 04:01:08;;;;;;;17.45;8.82;;;;;;;4.86;100.00;101844.97;5013239;28;20048;-77
2023/12/27 04:03:34;;;;;;;21.60;9.30;;;;;;;4.92;100.00;101845.00;5026627;28;20108;-77
2023/12/27 04:05:59;;;;;;;17.25;9.93;;;;;;;4.97;100.00;101844.13;5032005;28;20033;-76
2023/12/27 04:08:24;;;;;;;21.38;9.80;;;;;;;5.00;100.00;101828.53;5033057;28;20252;-76
2023/12/27 04:10:50;;;;;;;23.30;9.80;;;;;;;5.08;100.00;101825.06;5027781;28;20367;-77
2023/12/27 04:13:15;;;;;;;24.73;10.13;;;;;;;5.13;100.00;101828.50;5014047;28;20273;-77
2023/12/27 04:15:40;;;;;;;14.90;9.35;;;;;;;5.08;100.00;101827.66;5013795;28;20063;-77
2023/12/27 04:18:07;;;;;;;20.17;9.80;;;;;;;5.06;100.00;101830.25;5023121;28;20034;-77
2023/12/27 04:20:32;;;;;;;14.90;9.02;;;;;;;5.04;100.00;101824.22;5028302;28;20052;-77
2023/12/27 04:22:58;;;;;;;16.20;9.40;;;;;;;5.04;100.00;101823.31;5032162;28;20025;-77
2023/12/27 04:25:23;;;;;;;17.33;8.88;;;;;;;4.99;100.00;101821.59;5027548;28;20037;-77
2023/12/27 04:27:48;;;;;;;17.20;8.73;;;;;;;5.04;100.00;101818.13;5017920;28;20092;-77
2023/12/27 04:30:14;;;;;;;14.38;8.15;;;;;;;5.05;100.00;101805.16;5013120;28;20512;-77
2023/12/27 04:32:39;;;;;;;18.75;8.80;;;;;;;5.09;100.00;101798.22;5028791;28;20355;-77
2023/12/27 04:35:05;;;;;;;18.20;8.30;;;;;;;5.12;100.00;101811.22;5032828;28;20037;-77
2023/12/27 04:37:30;;;;;;;21.85;8.52;;;;;;;5.10;100.00;101805.16;5035537;28;20044;-77
2023/12/27 04:39:55;;;;;;;19.27;7.85;;;;;;;5.07;100.00;101812.94;5034694;28;20053;-76
2023/12/27 04:42:21;;;;;;;12.38;8.13;;;;;;;5.05;100.00;101810.34;5019504;28;20256;-77
2023/12/27 04:44:46;;;;;;;18.38;8.07;;;;;;;5.08;100.00;101802.56;5036721;28;20033;-77
2023/12/27 04:47:13;;;;;;;14.70;7.82;;;;;;;5.09;100.00;101801.66;5035773;28;20041;-77
2023/12/27 04:49:38;;;;;;;17.08;7.93;;;;;;;5.10;100.00;101794.78;5036930;28;20100;-77
2023/12/27 04:52:04;;;;;;;13.73;7.80;;;;;;;5.11;100.00;101786.09;5035642;28;20095;-77
2023/12/27 04:54:29;;;;;;;17.55;8.27;;;;;;;5.11;100.00;101788.69;5036513;28;20268;-77
2023/12/27 04:56:55;;;;;;;12.80;7.70;;;;;;;5.14;100.00;101781.75;5029519;28;20224;-77
2023/12/27 04:59:21;;;;;;;14.32;7.78;;;;;;;5.19;100.00;101776.56;5036381;28;20375;-77
2023/12/27 05:01:47;;;;;;;21.40;8.10;;;;;;;5.29;100.00;101769.59;5036237;28;20056;-77
2023/12/27 05:04:12;;;;;;;22.38;6.95;;;;;;;5.35;100.00;101759.19;5036005;28;20327;-77
2023/12/27 05:06:37;;;;;;;19.48;7.22;;;;;;;5.39;100.00;101753.97;5035976;28;20068;-77
2023/12/27 05:09:04;;;;;;;22.48;7.97;;;;;;;5.41;100.00;101756.56;5035003;28;20098;-77
2023/12/27 05:11:29;;;;;;;19.05;6.95;;;;;;;5.38;100.00;101753.97;5036527;28;20025;-77
2023/12/27 05:13:55;;;;;;;16.45;7.60;;;;;;;5.32;100.00;101754.84;5021582;28;20103;-77
2023/12/27 05:16:20;;;;;;;24.45;7.47;;;;;;;5.33;100.00;101742.72;5025547;28;20044;-77
2023/12/27 05:18:45;;;;;;;19.48;7.85;;;;;;;5.30;100.00;101740.16;5034956;28;20107;-77
2023/12/27 05:21:12;;;;;;;16.80;7.53;;;;;;;5.29;100.00;101738.41;5035763;28;20095;-77
2023/12/27 05:23:38;;;;;;;17.02;6.82;;;;;;;5.32;100.00;101743.63;5035005;28;20044;-76
2023/12/27 05:26:04;;;;;;;21.45;7.60;;;;;;;5.33;100.00;101734.94;5029092;28;20267;-77
2023/12/27 05:28:30;;;;;;;18.35;7.03;;;;;;;5.36;100.00;101742.72;5017655;28;20045;-77
2023/12/27 05:30:56;;;;;;;12.25;6.28;;;;;;;5.37;100.00;101734.06;5031766;28;20231;-77
2023/12/27 05:33:23;;;;;;;14.52;6.07;;;;;;;5.41;100.00;101725.38;5028959;28;20438;-77
2023/12/27 05:35:48;;;;;;;14.40;6.30;;;;;;;5.42;100.00;101727.13;5024970;28;20077;-77
2023/12/27 05:38:14;;;;;;;16.17;6.18;;;;;;;5.46;100.00;101723.63;5033319;28;20036;-77
2023/12/27 05:40:39;;;;;;;14.75;6.43;;;;;;;5.45;100.00;101715.84;5035636;28;20071;-77
2023/12/27 05:43:04;;;;;;;13.43;6.30;;;;;;;5.46;100.00;101712.38;5034422;28;20108;-77
2023/12/27 05:45:30;;;;;;;14.77;6.35;;;;;;;5.48;100.00;101710.63;5031916;28;20049;-77
2023/12/27 05:47:56;;;;;;;15.85;6.28;;;;;;;5.49;100.00;101713.19;5034138;28;20037;-77
2023/12/27 05:50:21;;;;;;;23.40;6.13;;;;;;;5.50;100.00;101706.28;5034992;28;20041;-77
2023/12/27 05:52:47;;;;;;;12.52;5.55;;;;;;;5.48;100.00;101701.09;5033942;28;20044;-77
2023/12/27 05:55:13;;;;;;;15.07;5.50;;;;;;;5.50;100.00;101708.88;5021742;28;20046;-77
2023/12/27 05:57:39;;;;;;;9.65;5.18;;;;;;;5.55;100.00;101712.31;5031101;28;20328;-77
2023/12/27 06:00:06;;;;;;;12.18;5.40;;;;;;;5.53;100.00;101706.25;5015885;28;20232;-75
2023/12/27 06:02:32;;;;;;;13.88;5.90;;;;;;;5.56;100.00;101696.69;5029994;28;20040;-75
2023/12/27 06:04:57;;;;;;;13.98;5.32;;;;;;;5.61;100.00;101696.69;5032765;28;20033;-75
2023/12/27 06:07:23;;;;;;;11.82;5.25;;;;;;;5.67;100.00;101698.38;5035108;28;20391;-76
2023/12/27 06:09:48;;;;;;;17.77;6.03;;;;;;;5.69;100.00;101691.44;5034478;28;20117;-75
2023/12/27 06:12:13;;;;;;;15.40;5.53;;;;;;;5.74;100.00;101685.31;5034886;28;20030;-75
2023/12/27 06:14:38;;;;;;;12.90;5.43;;;;;;;5.79;100.00;101676.66;5034696;28;20040;-75
2023/12/27 06:17:04;;;;;;;13.05;5.53;;;;;;;5.85;100.00;101664.44;5017883;28;20103;-77
2023/12/27 06:19:31;;;;;;;19.90;6.20;;;;;;;5.82;100.00;101668.81;5019134;28;20125;-77
2023/12/27 06:21:56;;;;;;;19.15;6.15;;;;;;;5.75;100.00;101657.63;5030619;28;20242;-77
2023/12/27 06:24:21;;;;;;;13.55;5.90;;;;;;;5.70;100.00;101647.25;5034611;28;20064;-77
2023/12/27 06:26:47;;;;;;;16.48;5.75;;;;;;;5.70;100.00;101638.59;5034555;28;20033;-77
2023/12/27 06:29:12;;;;;;;17.42;6.25;;;;;;;5.69;100.00;101639.44;5029414;28;20041;-77
2023/12/27 06:31:38;;;;;;;15.57;6.45;;;;;;;5.69;100.00;101627.31;5017977;28;20101;-77
2023/12/27 06:34:03;;;;;;;14.07;6.18;;;;;;;5.70;100.00;101629.06;5029207;28;20033;-77
2023/12/27 06:36:28;;;;;;;12.38;6.38;;;;;;;5.67;100.00;101613.47;5030775;28;20060;-77
2023/12/27 06:38:53;;;;;;;13.10;5.88;;;;;;;5.75;100.00;101606.50;5034454;28;20051;-77
2023/12/27 06:41:19;;;;;;;12.68;4.88;;;;;;;5.79;100.00;101602.13;5034565;28;20588;-77
2023/12/27 06:43:44;;;;;;;9.18;5.18;;;;;;;5.80;100.00;101603.84;5019545;28;20366;-77
2023/12/27 06:46:10;;;;;;;10.70;5.43;;;;;;;5.77;100.00;101607.34;5021931;28;20104;-77
2023/12/27 06:48:35;;;;;;;10.05;4.90;;;;;;;5.76;100.00;101610.78;5034284;28;20060;-77
2023/12/27 06:51:03;;;;;;;12.75;5.80;;;;;;;5.75;100.00;101597.84;5022357;28;20168;-77
2023/12/27 06:53:29;;;;;;;8.20;5.18;;;;;;;5.77;100.00;101609.06;5014769;28;20034;-77
2023/12/27 06:55:54;;;;;;;14.10;6.05;;;;;;;5.76;100.00;101607.34;5026250;28;20376;-77
2023/12/27 06:58:20;;;;;;;11.43;6.03;;;;;;;5.80;100.00;101602.97;5033365;28;20037;-77
2023/12/27 07:00:45;;;;;;;9.57;5.47;;;;;;;5.79;100.00;101601.28;5033476;28;20048;-77
2023/12/27 07:03:11;;;;;;;10.55;5.47;;;;;;;5.77;100.00;101596.94;5025703;28;20315;-77
2023/12/27 07:05:37;;;;;;;13.32;5.90;;;;;;;5.76;100.00;101595.19;5016910;28;20044;-77
2023/12/27 07:08:02;;;;;;;12.57;5.78;;;;;;;5.81;100.00;101594.31;5014193;28;20053;-77
2023/12/27 07:10:28;;;;;;;8.20;5.20;;;;;;;5.80;100.00;101588.22;5017291;28;20061;-78
2023/12/27 07:12:53;;;;;;;11.65;5.93;;;;;;;5.83;100.00;101580.41;5033302;28;20036;-77
2023/12/27 07:15:18;;;;;;;6.95;4.60;;;;;;;5.87;100.00;101578.66;5034183;28;20047;-77
2023/12/27 07:17:44;;;;;;;7.25;5.00;;;;;;;5.87;100.00;101581.25;5033047;28;20041;-77
2023/12/27 07:20:10;;;;;;;5.53;4.82;;;;;;;5.88;100.00;101580.41;5028183;28;20036;-77
2023/12/27 07:22:36;;;;;;;8.65;4.72;;;;;;;5.93;100.00;101583.78;5033638;28;20045;-77
2023/12/27 07:25:01;;;;;;;9.50;6.07;;;;;;;5.92;100.00;101575.13;5033080;28;20044;-77
2023/12/27 07:27:26;;;;;;;7.22;5.18;;;;;;;5.91;100.00;101573.44;5023728;28;20104;-77
2023/12/27 07:29:52;;;;;;;8.93;6.13;;;;;;;5.86;100.00;101567.41;5014796;28;20045;-77
2023/12/27 07:32:17;;;;;;;6.72;5.88;;;;;;;5.90;100.00;101568.22;5025813;28;20037;-77
2023/12/27 07:34:42;;;;;;;8.23;5.40;;;;;;;5.93;100.00;101563.00;5029848;28;20060;-77
2023/12/27 07:37:08;;;;;;;6.13;5.53;;;;;;;5.94;100.00;101562.97;5025644;28;20218;-77
2023/12/27 07:39:34;;;;;;;5.88;5.38;;;;;;;5.96;100.00;101563.84;5014175;28;20037;-77
2023/12/27 07:42:00;;;;;;;4.82;4.43;;;;;;;6.01;100.00;101565.56;5017392;28;20048;-77
2023/12/27 07:44:26;;;;;;;5.28;4.82;;;;;;;6.03;100.00;101563.81;5032327;28;20358;-77
2023/12/27 07:46:52;;;;;;;5.60;5.10;;;;;;;6.05;100.00;101554.25;5026511;28;20225;-77
2023/12/27 07:49:18;;;;;;;5.80;5.30;;;;;;;6.02;100.00;101560.34;5029913;28;20106;-77
2023/12/27 07:51:43;;;;;;;5.90;5.20;;;;;;;6.07;100.00;101565.50;5033058;28;20037;-77
2023/12/27 07:54:08;;;;;;;5.78;4.65;;;;;;;6.05;100.00;101560.31;5033157;28;20037;-77
2023/12/27 07:56:35;;;;;;;5.20;4.80;;;;;;;6.08;100.00;101543.81;5031344;28;20057;-77
2023/12/27 07:59:00;;;;;;;6.20;5.38;;;;;;;6.11;100.00;101551.56;5031886;28;20045;-77
2023/12/27 08:01:30;;;;;;;6.38;4.90;;;;;;;6.11;100.00;101539.44;5033733;28;20240;-77
2023/12/27 08:03:55;;;;;;;5.72;5.10;;;;;;;6.13;100.00;101531.59;5031520;28;20041;-77
2023/12/27 08:06:21;;;;;;;5.75;5.32;;;;;;;6.14;100.00;101523.78;5016090;28;20296;-77
2023/12/27 08:08:47;;;;;;;4.72;4.43;;;;;;;6.14;100.00;101525.53;5015545;28;20045;-77
2023/12/27 08:11:12;;;;;;;4.93;4.53;;;;;;;6.16;100.00;101523.78;5028342;28;20045;-77
2023/12/27 08:13:38;;;;;;;6.40;5.32;;;;;;;6.19;100.00;101515.09;5037121;28;20037;-77
2023/12/27 08:16:04;;;;;;;6.05;5.43;;;;;;;6.21;100.00;101508.97;5034550;28;20256;-77
2023/12/27 08:18:29;;;;;;;5.63;5.13;;;;;;;6.23;100.00;101498.56;5029362;28;20038;-77
2023/12/27 08:20:55;;;;;;;6.35;5.82;;;;;;;6.22;100.00;101496.84;5032158;28;20332;-77
2023/12/27 08:23:20;;;;;;;5.32;4.85;;;;;;;6.26;100.00;101490.75;5025905;28;20034;-77
2023/12/27 08:25:46;;;;;;;4.78;4.38;;;;;;;6.28;100.00;101489.81;5036675;28;20488;-77
2023/12/27 08:28:11;;;;;;;6.15;5.55;;;;;;;6.33;100.00;101494.94;5025883;28;20044;-77
2023/12/27 08:30:37;;;;;;;6.10;5.63;;;;;;;6.34;100.00;101491.50;5028951;28;20083;-77
2023/12/27 08:33:06;;;;;;;8.20;6.57;;;;;;;6.36;100.00;101487.13;5036538;28;20049;-77
2023/12/27 08:35:32;;;;;;;;;;;;;;;6.38;100.00;101480.16;5037246;28;20145;-77
2023/12/27 08:37:57;;;;;;;6.28;5.78;;;;;;;6.39;100.00;101494.91;5031069;28;19916;-77
2023/12/27 08:40:23;;;;;;;7.13;6.53;;;;;;;6.43;100.00;101480.97;5031985;28;20160;-77
2023/12/27 08:42:48;;;;;;;6.97;6.38;;;;;;;6.43;100.00;101473.16;5024640;28;20037;-77
2023/12/27 08:45:14;;;;;;;8.77;7.82;;;;;;;6.46;100.00;101451.44;5022837;28;20117;-77
2023/12/27 08:47:39;;;;;;;7.93;7.18;;;;;;;6.48;100.00;101463.56;5035876;28;20218;-76
2023/12/27 08:50:05;;;;;;;10.65;9.55;;;;;;;6.50;100.00;101464.38;5033610;28;20037;-77
2023/12/27 08:52:31;;;;;;;10.20;9.15;;;;;;;6.53;100.00;101463.47;5025360;28;20042;-77
2023/12/27 08:54:56;;;;;;;9.95;9.02;;;;;;;6.56;100.00;101460.84;5028880;28;20045;-77
2023/12/27 08:57:22;;;;;;;12.10;10.68;;;;;;;6.61;100.00;101459.03;5030899;28;20236;-77
2023/12/27 08:59:47;;;;;;;10.95;9.93;;;;;;;6.63;100.00;101440.78;5030900;28;20108;-77
2023/12/27 09:02:13;;;;;;;10.65;9.43;;;;;;;6.65;100.00;101449.44;5029683;28;20052;-77
2023/12/27 09:04:38;;;;;;;10.63;9.52;;;;;;;6.69;100.00;101443.28;5033925;28;20320;-77
2023/12/27 09:07:03;;;;;;;10.02;9.02;;;;;;;6.69;100.00;101446.78;5025391;28;20076;-77
2023/12/27 09:09:29;;;;;;;14.30;11.55;;;;;;;6.71;100.00;101437.19;5027943;28;20037;-77
2023/12/27 09:11:55;;;;;;;11.45;10.35;;;;;;;6.75;100.00;101438.00;5035877;28;20041;-77
2023/12/27 09:14:20;;;;;;;14.00;11.70;;;;;;;6.78;100.00;101444.91;5028860;28;20320;-77
2023/12/27 09:16:45;;;;;;;14.05;10.70;;;;;;;6.81;100.00;101442.25;5029780;28;20287;-77
2023/12/27 09:19:12;;;;;;;16.20;12.88;;;;;;;6.84;100.00;101444.81;5027298;28;20096;-77
2023/12/27 09:21:45;;;;;;;16.73;13.50;;;;;;;6.86;100.00;101449.13;5022251;28;20442;-77
2023/12/27 09:24:10;;;;;;;16.52;12.65;;;;;;;6.88;100.00;101446.50;5033136;28;20238;-77
2023/12/27 09:26:35;;;;;;;12.10;10.80;;;;;;;6.91;100.00;101430.81;5036004;28;20064;-77
2023/12/27 09:29:02;;;;;;;12.07;10.52;;;;;;;6.92;100.00;101429.94;5027704;28;20272;-77
2023/12/27 09:31:30;;;;;;;15.82;11.20;;;;;;;6.93;100.00;101418.66;5028111;28;20033;-77
2023/12/27 09:33:56;;;;;;;14.70;11.80;;;;;;;6.96;100.00;101428.13;5033784;28;20037;-77
2023/12/27 09:36:21;;;;;;;17.08;11.85;;;;;;;7.00;100.00;101415.03;5032778;28;20331;-77
2023/12/27 09:38:46;;;;;;;12.10;10.30;;;;;;;7.01;100.00;101401.13;5040750;28;20104;-77
2023/12/27 09:41:13;;;;;;;10.98;9.68;;;;;;;7.05;100.00;101404.53;5039486;28;20036;-77
2023/12/27 09:43:41;;;;;;;13.50;10.23;;;;;;;7.06;100.00;101401.91;5036499;28;20041;-77
2023/12/27 09:46:09;;;;;;;14.43;11.07;;;;;;;7.08;100.00;101397.53;5029291;28;20332;-77
2023/12/27 09:48:36;;;;;;;12.07;9.87;;;;;;;7.11;100.00;101401.81;5031117;28;20108;-77
2023/12/27 09:51:04;;;;;;;10.40;9.40;;;;;;;7.14;100.00;101403.53;5035085;28;20108;-77
2023/12/27 09:53:30;;;;;;;11.65;9.63;;;;;;;7.15;100.00;101415.66;5029928;28;20038;-77
2023/12/27 09:55:56;;;;;;;10.50;9.23;;;;;;;7.16;100.00;101401.75;5037555;28;20025;-77
2023/12/27 09:58:26;;;;;;;11.18;10.07;;;;;;;7.18;100.00;101405.19;5032069;28;20037;-77
2023/12/27 10:00:55;;;;;;;16.20;9.93;;;;;;;7.24;100.00;101407.69;5031162;28;20337;-77
2023/12/27 10:03:35;;;;;;;11.93;10.35;;;;;;;7.27;100.00;101405.88;5033131;28;20491;-77
2023/12/27 10:06:32;;;;;;;14.57;9.85;;;;;;;7.31;100.00;101404.06;5031160;28;20033;-77
2023/12/27 10:08:57;;;;;;;12.60;10.38;;;;;;;7.32;100.00;101395.38;5024715;28;20130;-77
2023/12/27 10:11:23;;;;;;;13.82;10.30;;;;;;;7.34;100.00;101387.53;5029875;28;20339;-77
2023/12/27 10:13:50;;;;;;;13.82;10.82;;;;;;;7.36;100.00;101394.44;5031088;28;20041;-77
2023/12/27 10:16:16;;;;;;;15.35;10.57;;;;;;;7.36;100.00;101378.81;5032182;28;20086;-77
2023/12/27 10:18:45;;;;;;;12.88;10.77;;;;;;;7.39;100.00;101364.88;5037237;28;20056;-77
2023/12/27 10:21:10;;;;;;;11.68;9.40;;;;;;;7.42;100.00;101377.81;5032954;28;20025;-77
2023/12/27 10:23:36;;;;;;;12.95;9.57;;;;;;;7.45;100.00;101375.16;5030401;28;20217;-77
2023/12/27 10:26:02;;;;;;;14.40;10.10;;;;;;;7.47;100.00;101366.41;5034380;28;20049;-77
2023/12/27 10:28:27;;;;;;;10.60;8.82;;;;;;;7.49;100.00;101362.06;5035969;28;20021;-77
2023/12/27 10:30:53;;;;;;;11.85;8.85;;;;;;;7.50;100.00;101345.53;5037901;28;20078;-77
2023/12/27 10:33:22;;;;;;;18.23;11.43;;;;;;;7.52;100.00;101347.25;5038050;28;20032;-77
2023/12/27 10:35:47;;;;;;;11.20;9.05;;;;;;;7.58;100.00;101354.94;5037413;28;20029;-77
2023/12/27 10:38:13;;;;;;;12.45;9.10;;;;;;;7.60;100.00;101364.44;5037326;28;20086;-77
2023/12/27 10:40:41;;;;;;;12.40;9.70;;;;;;;7.62;100.00;101346.16;5039865;28;20044;-77
2023/12/27 10:43:08;;;;;;;10.45;8.48;;;;;;;7.63;100.00;101337.47;5037933;28;20064;-77
2023/12/27 10:45:35;;;;;;;16.48;10.10;;;;;;;7.64;100.00;101346.97;5036602;28;20061;-77
2023/12/27 10:48:04;;;;;;;12.30;9.45;;;;;;;7.66;100.00;101355.66;5033206;28;20041;-77
2023/12/27 10:50:30;;;;;;;9.98;7.93;;;;;;;7.70;100.00;101370.34;5035404;28;20033;-77
2023/12/27 10:53:06;;;;;;;14.48;10.52;;;;;;;7.71;100.00;101361.59;5033341;28;20267;-77
2023/12/27 10:55:36;;;;;;;23.25;10.10;;;;;;;7.72;100.00;101354.66;5032623;28;20127;-77
2023/12/27 10:58:06;;;;;;;12.00;8.77;;;;;;;7.72;100.00;101337.25;5034939;28;20281;-77
2023/12/27 11:00:33;;;;;;;10.90;8.88;;;;;;;7.73;100.00;101323.34;5044495;28;20037;-77
2023/12/27 11:02:59;;;;;;;11.85;8.07;;;;;;;7.73;100.00;101327.69;5043464;28;20037;-77
2023/12/27 11:05:26;;;;;;;11.70;8.10;;;;;;;7.78;100.00;101318.03;5043103;28;20228;-77
2023/12/27 11:07:53;;;;;;;10.38;7.85;;;;;;;7.80;100.00;101305.81;5041475;28;20052;-77
2023/12/27 11:10:21;;;;;;;10.35;8.70;;;;;;;7.83;100.00;101309.22;5040131;28;20197;-77
2023/12/27 11:12:47;;;;;;;16.00;9.02;;;;;;;7.82;100.00;101317.94;5040532;28;20059;-77